sensor_id;sensor_type;location;lat;lon;timestamp;temperature;humidity
16838;DHT22;19510;54.486;9.046;2023-04-08T05:32:06;8.00;99.90
16838;DHT22;19510;54.486;9.046;2023-04-08T05:34:32;7.90;99.90
16838;DHT22;19510;54.486;9.046;2023-04-08T05:36:58;8.00;99.90
16838;DHT22;19510;54.486;9.046;2023-04-08T05:39:23;8.00;99.90
16838;DHT22;19510;54.486;9.046;2023-04-08T05:41:51;7.90;99.90
16838;DHT22;19510;54.486;9.046;2023-04-08T05:44:17;7.90;99.90
16838;DHT22;19510;54.486;9.046;2023-04-08T05:46:43;7.90;99.90
16838;DHT22;19510;54.486;9.046;2023-04-08T05:49:08;7.90;99.90
16838;DHT22;19510;54.486;9.046;2023-04-08T05:51:34;7.90;99.90
16838;DHT22;19510;54.486;9.046;2023-04-08T05:54:00;7.90;99.90
16838;DHT22;19510;54.486;9.046;2023-04-08T05:56:28;7.80;99.90
16838;DHT22;19510;54.486;9.046;2023-04-08T05:58:54;7.90;99.90
16838;DHT22;19510;54.486;9.046;2023-04-08T06:01:19;7.90;99.90
16838;DHT22;19510;54.486;9.046;2023-04-08T06:03:47;8.00;99.90
16838;DHT22;19510;54.486;9.046;2023-04-08T06:06:13;7.90;99.90
16838;DHT22;19510;54.486;9.046;2023-04-08T06:08:39;8.00;99.90
16838;DHT22;19510;54.486;9.046;2023-04-08T06:11:06;7.90;99.90
16838;DHT22;19510;54.486;9.046;2023-04-08T06:13:31;8.00;99.90
16838;DHT22;19510;54.486;9.046;2023-04-08T06:16:04;8.00;99.90
16838;DHT22;19510;54.486;9.046;2023-04-08T06:18:34;8.10;99.90
16838;DHT22;19510;54.486;9.046;2023-04-08T06:20:59;8.10;99.90
16838;DHT22;19510;54.486;9.046;2023-04-08T06:23:25;8.20;99.90
16838;DHT22;19510;54.486;9.046;2023-04-08T06:25:52;8.20;99.90
16838;DHT22;19510;54.486;9.046;2023-04-08T06:28:18;8.20;99.90
16838;DHT22;19510;54.486;9.046;2023-04-08T06:30:44;8.20;99.90
16838;DHT22;19510;54.486;9.046;2023-04-08T06:33:14;8.30;99.90
16838;DHT22;19510;54.486;9.046;2023-04-08T06:35:40;8.30;99.90
16838;DHT22;19510;54.486;9.046;2023-04-08T06:38:06;8.30;99.90
16838;DHT22;19510;54.486;9.046;2023-04-08T06:40:32;8.30;99.90
16838;DHT22;19510;54.486;9.046;2023-04-08T06:42:57;8.30;99.90
16838;DHT22;19510;54.486;9.046;2023-04-08T06:45:23;8.20;99.90
16838;DHT22;19510;54.486;9.046;2023-04-08T06:47:49;8.20;99.90
16838;DHT22;19510;54.486;9.046;2023-04-08T06:50:15;8.20;99.90
16838;DHT22;19510;54.486;9.046;2023-04-08T06:52:41;8.30;99.90
16838;DHT22;19510;54.486;9.046;2023-04-08T06:55:07;8.40;99.90
16838;DHT22;19510;54.486;9.046;2023-04-08T06:57:32;8.40;99.90
16838;DHT22;19510;54.486;9.046;2023-04-08T06:59:58;8.50;99.90
16838;DHT22;19510;54.486;9.046;2023-04-08T07:02:25;8.50;99.90
16838;DHT22;19510;54.486;9.046;2023-04-08T07:04:50;8.60;99.90
16838;DHT22;19510;54.486;9.046;2023-04-08T07:07:16;8.60;99.90
16838;DHT22;19510;54.486;9.046;2023-04-08T07:09:42;8.70;99.90
16838;DHT22;19510;54.486;9.046;2023-04-08T07:12:11;8.70;99.90
16838;DHT22;19510;54.486;9.046;2023-04-08T07:14:36;8.70;99.90
16838;DHT22;19510;54.486;9.046;2023-04-08T07:17:02;8.70;99.90
16838;DHT22;19510;54.486;9.046;2023-04-08T07:19:31;8.60;99.90
16838;DHT22;19510;54.486;9.046;2023-04-08T07:21:58;8.60;99.90
16838;DHT22;19510;54.486;9.046;2023-04-08T07:24:24;8.60;99.90
16838;DHT22;19510;54.486;9.046;2023-04-08T07:26:53;8.70;99.90
16838;DHT22;19510;54.486;9.046;2023-04-08T07:29:21;8.60;99.90
16838;DHT22;19510;54.486;9.046;2023-04-08T07:31:47;8.60;99.90
16838;DHT22;19510;54.486;9.046;2023-04-08T07:34:12;8.70;99.90
16838;DHT22;19510;54.486;9.046;2023-04-08T07:36:38;8.70;99.90
16838;DHT22;19510;54.486;9.046;2023-04-08T07:39:05;8.70;99.90
16838;DHT22;19510;54.486;9.046;2023-04-08T07:41:32;8.70;99.90
16838;DHT22;19510;54.486;9.046;2023-04-08T07:43:58;8.70;99.90
16838;DHT22;19510;54.486;9.046;2023-04-08T07:46:26;8.70;99.90
16838;DHT22;19510;54.486;9.046;2023-04-08T07:48:52;8.70;99.90
16838;DHT22;19510;54.486;9.046;2023-04-08T07:51:18;8.80;99.90
16838;DHT22;19510;54.486;9.046;2023-04-08T07:53:44;8.80;99.90
16838;DHT22;19510;54.486;9.046;2023-04-08T07:56:14;8.90;99.90
16838;DHT22;19510;54.486;9.046;2023-04-08T07:58:41;9.00;99.90
16838;DHT22;19510;54.486;9.046;2023-04-08T08:01:17;9.00;99.90
16838;DHT22;19510;54.486;9.046;2023-04-08T08:03:44;9.10;99.90
16838;DHT22;19510;54.486;9.046;2023-04-08T08:06:10;9.10;99.90
16838;DHT22;19510;54.486;9.046;2023-04-08T08:08:36;9.10;99.90
16838;DHT22;19510;54.486;9.046;2023-04-08T08:11:02;9.20;99.90
16838;DHT22;19510;54.486;9.046;2023-04-08T08:13:28;9.20;99.90
16838;DHT22;19510;54.486;9.046;2023-04-08T08:15:54;9.30;99.90
16838;DHT22;19510;54.486;9.046;2023-04-08T08:18:20;9.40;99.90
16838;DHT22;19510;54.486;9.046;2023-04-08T08:20:46;9.50;99.90
16838;DHT22;19510;54.486;9.046;2023-04-08T08:23:11;9.60;99.90
16838;DHT22;19510;54.486;9.046;2023-04-08T08:25:37;9.60;99.90
16838;DHT22;19510;54.486;9.046;2023-04-08T08:28:03;9.50;99.90
16838;DHT22;19510;54.486;9.046;2023-04-08T08:30:29;9.50;99.90
16838;DHT22;19510;54.486;9.046;2023-04-08T08:32:55;9.60;99.90
16838;DHT22;19510;54.486;9.046;2023-04-08T08:35:23;9.60;99.90
16838;DHT22;19510;54.486;9.046;2023-04-08T08:37:52;9.70;99.90
16838;DHT22;19510;54.486;9.046;2023-04-08T08:40:18;9.70;99.90
16838;DHT22;19510;54.486;9.046;2023-04-08T08:42:50;9.70;99.90
16838;DHT22;19510;54.486;9.046;2023-04-08T08:45:21;9.80;99.90
16838;DHT22;19510;54.486;9.046;2023-04-08T08:47:50;10.00;99.90
16838;DHT22;19510;54.486;9.046;2023-04-08T08:50:16;10.10;99.90
16838;DHT22;19510;54.486;9.046;2023-04-08T08:52:49;10.30;99.90
16838;DHT22;19510;54.486;9.046;2023-04-08T08:55:18;10.40;99.90
16838;DHT22;19510;54.486;9.046;2023-04-08T08:57:44;10.50;99.90
16838;DHT22;19510;54.486;9.046;2023-04-08T09:00:11;10.60;99.90
16838;DHT22;19510;54.486;9.046;2023-04-08T09:02:38;10.70;99.90
16838;DHT22;19510;54.486;9.046;2023-04-08T09:05:06;10.70;99.90
16838;DHT22;19510;54.486;9.046;2023-04-08T09:07:37;10.80;99.90
16838;DHT22;19510;54.486;9.046;2023-04-08T09:10:08;10.90;99.90
16838;DHT22;19510;54.486;9.046;2023-04-08T09:12:52;11.00;99.90
16838;DHT22;19510;54.486;9.046;2023-04-08T09:15:18;10.90;99.90
16838;DHT22;19510;54.486;9.046;2023-04-08T09:17:44;11.00;99.90
16838;DHT22;19510;54.486;9.046;2023-04-08T09:20:12;11.10;99.90
16838;DHT22;19510;54.486;9.046;2023-04-08T09:25:23;11.20;99.90
16838;DHT22;19510;54.486;9.046;2023-04-08T09:27:51;11.20;99.90
16838;DHT22;19510;54.486;9.046;2023-04-08T09:30:20;11.20;99.90
16838;DHT22;19510;54.486;9.046;2023-04-08T09:32:50;11.10;99.90
16838;DHT22;19510;54.486;9.046;2023-04-08T09:35:17;11.00;99.90
16838;DHT22;19510;54.486;9.046;2023-04-08T09:37:43;11.10;99.90
16838;DHT22;19510;54.486;9.046;2023-04-08T09:40:13;11.10;99.90
16838;DHT22;19510;54.486;9.046;2023-04-08T09:42:46;11.20;99.90
16838;DHT22;19510;54.486;9.046;2023-04-08T09:45:16;11.20;99.90
16838;DHT22;19510;54.486;9.046;2023-04-08T09:48:12;11.20;99.90
16838;DHT22;19510;54.486;9.046;2023-04-08T09:50:49;11.20;99.90
16838;DHT22;19510;54.486;9.046;2023-04-08T09:53:33;11.20;99.90
16838;DHT22;19510;54.486;9.046;2023-04-08T09:55:59;11.30;99.90
16838;DHT22;19510;54.486;9.046;2023-04-08T09:59:16;11.40;99.90
16838;DHT22;19510;54.486;9.046;2023-04-08T10:01:39;11.60;99.90
16838;DHT22;19510;54.486;9.046;2023-04-08T10:04:14;11.70;99.90
16838;DHT22;19510;54.486;9.046;2023-04-08T10:06:42;11.70;99.90
16838;DHT22;19510;54.486;9.046;2023-04-08T10:09:09;11.80;99.90
16838;DHT22;19510;54.486;9.046;2023-04-08T10:11:35;11.90;99.90
16838;DHT22;19510;54.486;9.046;2023-04-08T10:14:04;12.00;99.90
16838;DHT22;19510;54.486;9.046;2023-04-08T10:16:30;11.80;99.90
16838;DHT22;19510;54.486;9.046;2023-04-08T10:18:56;11.80;99.90
16838;DHT22;19510;54.486;9.046;2023-04-08T10:21:36;11.80;99.90
16838;DHT22;19510;54.486;9.046;2023-04-08T10:24:06;11.80;99.90
16838;DHT22;19510;54.486;9.046;2023-04-08T10:26:34;12.00;99.90
16838;DHT22;19510;54.486;9.046;2023-04-08T10:31:44;11.90;99.90
16838;DHT22;19510;54.486;9.046;2023-04-08T10:34:20;11.70;99.90
16838;DHT22;19510;54.486;9.046;2023-04-08T10:36:47;11.70;99.90
16838;DHT22;19510;54.486;9.046;2023-04-08T10:39:16;11.80;99.90
16838;DHT22;19510;54.486;9.046;2023-04-08T10:44:20;11.90;99.90
16838;DHT22;19510;54.486;9.046;2023-04-08T10:46:47;12.00;99.90
16838;DHT22;19510;54.486;9.046;2023-04-08T10:49:14;12.10;99.90
16838;DHT22;19510;54.486;9.046;2023-04-08T10:51:40;12.30;99.90
16838;DHT22;19510;54.486;9.046;2023-04-08T10:54:15;12.40;99.90
16838;DHT22;19510;54.486;9.046;2023-04-08T10:56:45;12.40;99.90
16838;DHT22;19510;54.486;9.046;2023-04-08T10:59:13;12.50;99.90
16838;DHT22;19510;54.486;9.046;2023-04-08T11:01:42;12.50;99.90
16838;DHT22;19510;54.486;9.046;2023-04-08T11:04:13;12.70;99.90
16838;DHT22;19510;54.486;9.046;2023-04-08T11:06:41;12.60;99.90
16838;DHT22;19510;54.486;9.046;2023-04-08T11:09:07;12.60;99.90
16838;DHT22;19510;54.486;9.046;2023-04-08T11:11:36;12.70;99.90
16838;DHT22;19510;54.486;9.046;2023-04-08T11:14:05;12.80;99.90
16838;DHT22;19510;54.486;9.046;2023-04-08T11:16:31;12.80;99.90
16838;DHT22;19510;54.486;9.046;2023-04-08T11:18:57;12.90;99.90
16838;DHT22;19510;54.486;9.046;2023-04-08T11:21:23;13.10;99.90
16838;DHT22;19510;54.486;9.046;2023-04-08T11:23:52;13.10;99.90
16838;DHT22;19510;54.486;9.046;2023-04-08T11:26:18;13.20;99.90
16838;DHT22;19510;54.486;9.046;2023-04-08T11:28:46;13.30;99.90
16838;DHT22;19510;54.486;9.046;2023-04-08T11:31:17;13.40;99.90
16838;DHT22;19510;54.486;9.046;2023-04-08T11:33:52;13.20;99.90
16838;DHT22;19510;54.486;9.046;2023-04-08T11:36:18;13.20;99.90
16838;DHT22;19510;54.486;9.046;2023-04-08T11:38:46;13.20;99.90
16838;DHT22;19510;54.486;9.046;2023-04-08T11:41:12;13.30;99.90
16838;DHT22;19510;54.486;9.046;2023-04-08T11:43:56;13.40;99.90
16838;DHT22;19510;54.486;9.046;2023-04-08T11:46:22;13.40;99.90
16838;DHT22;19510;54.486;9.046;2023-04-08T11:49:17;13.40;99.90
16838;DHT22;19510;54.486;9.046;2023-04-08T11:51:55;13.40;99.90
16838;DHT22;19510;54.486;9.046;2023-04-08T11:54:29;13.50;99.90
16838;DHT22;19510;54.486;9.046;2023-04-08T11:56:55;13.50;99.90
16838;DHT22;19510;54.486;9.046;2023-04-08T11:59:23;13.70;99.90
16838;DHT22;19510;54.486;9.046;2023-04-08T12:01:53;13.80;99.90
16838;DHT22;19510;54.486;9.046;2023-04-08T12:04:19;13.80;99.90
16838;DHT22;19510;54.486;9.046;2023-04-08T12:06:45;14.00;99.90
16838;DHT22;19510;54.486;9.046;2023-04-08T12:09:14;14.20;99.90
16838;DHT22;19510;54.486;9.046;2023-04-08T12:11:41;14.40;99.90
16838;DHT22;19510;54.486;9.046;2023-04-08T12:14:08;14.70;99.90
16838;DHT22;19510;54.486;9.046;2023-04-08T12:16:34;14.80;99.90
16838;DHT22;19510;54.486;9.046;2023-04-08T12:19:00;15.00;99.90
16838;DHT22;19510;54.486;9.046;2023-04-08T12:21:26;15.20;99.90
16838;DHT22;19510;54.486;9.046;2023-04-08T12:23:54;15.10;99.90
16838;DHT22;19510;54.486;9.046;2023-04-08T12:26:21;15.30;99.90
16838;DHT22;19510;54.486;9.046;2023-04-08T12:28:47;15.30;99.90
16838;DHT22;19510;54.486;9.046;2023-04-08T12:31:15;15.40;99.90
16838;DHT22;19510;54.486;9.046;2023-04-08T12:33:40;15.70;99.90
16838;DHT22;19510;54.486;9.046;2023-04-08T12:36:06;15.90;99.90
16838;DHT22;19510;54.486;9.046;2023-04-08T12:38:32;15.80;99.90
16838;DHT22;19510;54.486;9.046;2023-04-08T12:40:58;15.90;99.90
16838;DHT22;19510;54.486;9.046;2023-04-08T12:43:25;16.00;99.90
16838;DHT22;19510;54.486;9.046;2023-04-08T12:45:51;16.10;99.90
16838;DHT22;19510;54.486;9.046;2023-04-08T12:48:17;16.30;99.90
16838;DHT22;19510;54.486;9.046;2023-04-08T12:50:43;16.40;99.90
16838;DHT22;19510;54.486;9.046;2023-04-08T12:53:09;16.60;99.90
16838;DHT22;19510;54.486;9.046;2023-04-08T12:55:35;16.70;99.90
16838;DHT22;19510;54.486;9.046;2023-04-08T12:58:03;16.80;99.90
16838;DHT22;19510;54.486;9.046;2023-04-08T13:00:30;16.70;99.90
16838;DHT22;19510;54.486;9.046;2023-04-08T13:02:55;16.90;99.90
16838;DHT22;19510;54.486;9.046;2023-04-08T13:05:21;16.80;99.90
16838;DHT22;19510;54.486;9.046;2023-04-08T13:07:47;16.50;99.90
16838;DHT22;19510;54.486;9.046;2023-04-08T13:10:12;16.70;99.90
16838;DHT22;19510;54.486;9.046;2023-04-08T13:12:40;16.60;99.90
16838;DHT22;19510;54.486;9.046;2023-04-08T13:15:07;16.70;99.90
16838;DHT22;19510;54.486;9.046;2023-04-08T13:17:33;16.80;99.90
16838;DHT22;19510;54.486;9.046;2023-04-08T13:19:58;17.00;99.90
16838;DHT22;19510;54.486;9.046;2023-04-08T13:22:25;17.10;99.90
16838;DHT22;19510;54.486;9.046;2023-04-08T13:24:50;17.20;99.90
16838;DHT22;19510;54.486;9.046;2023-04-08T13:27:16;17.50;99.90
16838;DHT22;19510;54.486;9.046;2023-04-08T13:29:42;17.60;99.90
16838;DHT22;19510;54.486;9.046;2023-04-08T13:32:07;17.70;99.90
16838;DHT22;19510;54.486;9.046;2023-04-08T13:34:33;17.80;99.90
16838;DHT22;19510;54.486;9.046;2023-04-08T13:36:59;18.10;99.90
16838;DHT22;19510;54.486;9.046;2023-04-08T13:39:24;18.10;99.90
16838;DHT22;19510;54.486;9.046;2023-04-08T13:41:50;18.00;99.90
16838;DHT22;19510;54.486;9.046;2023-04-08T13:44:18;17.90;99.90
16838;DHT22;19510;54.486;9.046;2023-04-08T13:46:44;17.90;99.90
16838;DHT22;19510;54.486;9.046;2023-04-08T13:49:10;17.90;99.90
16838;DHT22;19510;54.486;9.046;2023-04-08T13:51:36;17.90;99.90
16838;DHT22;19510;54.486;9.046;2023-04-08T13:54:01;18.00;99.90
16838;DHT22;19510;54.486;9.046;2023-04-08T13:56:27;18.30;99.90
16838;DHT22;19510;54.486;9.046;2023-04-08T13:58:53;18.30;99.90
16838;DHT22;19510;54.486;9.046;2023-04-08T14:01:19;18.20;99.90
16838;DHT22;19510;54.486;9.046;2023-04-08T14:03:45;18.30;99.90
16838;DHT22;19510;54.486;9.046;2023-04-08T14:06:11;18.20;99.90
16838;DHT22;19510;54.486;9.046;2023-04-08T14:08:36;18.00;99.90
16838;DHT22;19510;54.486;9.046;2023-04-08T14:11:02;17.80;99.90
16838;DHT22;19510;54.486;9.046;2023-04-08T14:13:28;17.90;99.90
16838;DHT22;19510;54.486;9.046;2023-04-08T14:15:53;17.90;99.90
16838;DHT22;19510;54.486;9.046;2023-04-08T14:18:22;18.00;99.90
16838;DHT22;19510;54.486;9.046;2023-04-08T14:20:48;17.80;99.90
16838;DHT22;19510;54.486;9.046;2023-04-08T14:23:13;17.60;99.90
16838;DHT22;19510;54.486;9.046;2023-04-08T14:25:41;17.30;99.90
16838;DHT22;19510;54.486;9.046;2023-04-08T14:28:09;17.40;99.90
16838;DHT22;19510;54.486;9.046;2023-04-08T14:30:35;17.50;99.90
16838;DHT22;19510;54.486;9.046;2023-04-08T14:33:02;17.30;99.90
16838;DHT22;19510;54.486;9.046;2023-04-08T14:35:29;17.20;99.90
16838;DHT22;19510;54.486;9.046;2023-04-08T14:37:55;17.30;99.90
16838;DHT22;19510;54.486;9.046;2023-04-08T14:40:21;17.40;99.90
16838;DHT22;19510;54.486;9.046;2023-04-08T14:42:47;17.30;99.90
16838;DHT22;19510;54.486;9.046;2023-04-08T14:45:14;17.20;99.90
16838;DHT22;19510;54.486;9.046;2023-04-08T14:47:40;17.10;99.90
16838;DHT22;19510;54.486;9.046;2023-04-08T14:50:06;17.10;99.90
16838;DHT22;19510;54.486;9.046;2023-04-08T14:52:32;17.10;99.90
16838;DHT22;19510;54.486;9.046;2023-04-08T14:54:58;17.00;99.90
16838;DHT22;19510;54.486;9.046;2023-04-08T14:57:23;17.00;99.90
16838;DHT22;19510;54.486;9.046;2023-04-08T14:59:50;17.00;99.90
16838;DHT22;19510;54.486;9.046;2023-04-08T15:02:16;17.00;99.90
16838;DHT22;19510;54.486;9.046;2023-04-08T15:04:42;16.90;99.90
16838;DHT22;19510;54.486;9.046;2023-04-08T15:07:08;16.80;99.90
16838;DHT22;19510;54.486;9.046;2023-04-08T15:09:33;16.90;99.90
16838;DHT22;19510;54.486;9.046;2023-04-08T15:12:01;17.00;99.90
16838;DHT22;19510;54.486;9.046;2023-04-08T15:14:27;17.20;99.90
16838;DHT22;19510;54.486;9.046;2023-04-08T15:16:53;17.00;99.90
16838;DHT22;19510;54.486;9.046;2023-04-08T15:19:18;17.10;99.90
16838;DHT22;19510;54.486;9.046;2023-04-08T15:21:44;17.00;99.90
16838;DHT22;19510;54.486;9.046;2023-04-08T15:24:10;17.00;99.90
16838;DHT22;19510;54.486;9.046;2023-04-08T15:26:37;16.90;99.90
16838;DHT22;19510;54.486;9.046;2023-04-08T15:29:03;17.00;99.90
16838;DHT22;19510;54.486;9.046;2023-04-08T15:31:29;17.10;99.90
16838;DHT22;19510;54.486;9.046;2023-04-08T15:33:55;17.10;99.90
16838;DHT22;19510;54.486;9.046;2023-04-08T15:36:22;17.10;99.90
16838;DHT22;19510;54.486;9.046;2023-04-08T15:38:48;17.40;99.90
16838;DHT22;19510;54.486;9.046;2023-04-08T15:41:18;17.40;99.90
16838;DHT22;19510;54.486;9.046;2023-04-08T15:43:44;17.60;99.90
16838;DHT22;19510;54.486;9.046;2023-04-08T15:46:21;17.90;99.90
16838;DHT22;19510;54.486;9.046;2023-04-08T15:48:48;18.10;99.90
16838;DHT22;19510;54.486;9.046;2023-04-08T15:51:14;18.20;99.90
16838;DHT22;19510;54.486;9.046;2023-04-08T15:53:41;18.00;99.90
16838;DHT22;19510;54.486;9.046;2023-04-08T15:56:16;17.30;99.90
16838;DHT22;19510;54.486;9.046;2023-04-08T15:58:43;16.80;99.90
16838;DHT22;19510;54.486;9.046;2023-04-08T16:01:08;16.70;99.90
16838;DHT22;19510;54.486;9.046;2023-04-08T16:03:37;16.90;99.90
16838;DHT22;19510;54.486;9.046;2023-04-08T16:06:03;17.00;99.90
16838;DHT22;19510;54.486;9.046;2023-04-08T16:08:30;16.90;99.90
16838;DHT22;19510;54.486;9.046;2023-04-08T16:11:03;16.70;99.90
16838;DHT22;19510;54.486;9.046;2023-04-08T16:13:29;16.90;99.90
16838;DHT22;19510;54.486;9.046;2023-04-08T16:15:56;17.20;99.90
16838;DHT22;19510;54.486;9.046;2023-04-08T16:18:24;17.40;99.90
16838;DHT22;19510;54.486;9.046;2023-04-08T16:20:50;17.30;99.90
16838;DHT22;19510;54.486;9.046;2023-04-08T16:23:16;17.10;99.90
16838;DHT22;19510;54.486;9.046;2023-04-08T16:25:43;16.90;99.90
16838;DHT22;19510;54.486;9.046;2023-04-08T16:28:11;16.70;99.90
16838;DHT22;19510;54.486;9.046;2023-04-08T16:30:38;16.50;99.90
16838;DHT22;19510;54.486;9.046;2023-04-08T16:33:07;16.30;99.90
16838;DHT22;19510;54.486;9.046;2023-04-08T16:35:33;16.20;99.90
16838;DHT22;19510;54.486;9.046;2023-04-08T16:38:00;15.90;99.90
16838;DHT22;19510;54.486;9.046;2023-04-08T16:40:25;15.70;99.90
16838;DHT22;19510;54.486;9.046;2023-04-08T16:42:52;15.70;99.90
16838;DHT22;19510;54.486;9.046;2023-04-08T16:45:17;15.60;99.90
16838;DHT22;19510;54.486;9.046;2023-04-08T16:47:43;15.40;99.90
16838;DHT22;19510;54.486;9.046;2023-04-08T16:50:10;15.20;99.90
16838;DHT22;19510;54.486;9.046;2023-04-08T16:52:36;15.20;99.90
16838;DHT22;19510;54.486;9.046;2023-04-08T16:55:02;15.30;99.90
16838;DHT22;19510;54.486;9.046;2023-04-08T16:57:32;15.40;99.90
16838;DHT22;19510;54.486;9.046;2023-04-08T16:59:58;15.50;99.90
16838;DHT22;19510;54.486;9.046;2023-04-08T17:02:25;15.60;99.90
16838;DHT22;19510;54.486;9.046;2023-04-08T17:04:50;15.40;99.90
16838;DHT22;19510;54.486;9.046;2023-04-08T17:07:16;15.40;99.90
16838;DHT22;19510;54.486;9.046;2023-04-08T17:09:42;15.00;99.90
16838;DHT22;19510;54.486;9.046;2023-04-08T17:12:07;14.70;99.90
16838;DHT22;19510;54.486;9.046;2023-04-08T17:14:33;14.40;99.90
16838;DHT22;19510;54.486;9.046;2023-04-08T17:17:01;14.30;99.90
16838;DHT22;19510;54.486;9.046;2023-04-08T17:19:28;14.20;99.90
16838;DHT22;19510;54.486;9.046;2023-04-08T17:21:54;14.00;99.90
16838;DHT22;19510;54.486;9.046;2023-04-08T17:24:20;13.90;99.90
16838;DHT22;19510;54.486;9.046;2023-04-08T17:26:47;13.70;99.90
16838;DHT22;19510;54.486;9.046;2023-04-08T17:29:13;13.70;99.90
16838;DHT22;19510;54.486;9.046;2023-04-08T17:31:39;13.60;99.90
16838;DHT22;19510;54.486;9.046;2023-04-08T17:34:08;13.60;99.90
16838;DHT22;19510;54.486;9.046;2023-04-08T17:36:36;13.60;99.90
16838;DHT22;19510;54.486;9.046;2023-04-08T17:39:02;13.60;99.90
16838;DHT22;19510;54.486;9.046;2023-04-08T17:41:28;13.50;99.90
16838;DHT22;19510;54.486;9.046;2023-04-08T17:43:53;13.50;99.90
16838;DHT22;19510;54.486;9.046;2023-04-08T17:46:19;13.40;99.90
16838;DHT22;19510;54.486;9.046;2023-04-08T17:48:45;13.30;99.90
16838;DHT22;19510;54.486;9.046;2023-04-08T17:51:11;13.40;99.90
16838;DHT22;19510;54.486;9.046;2023-04-08T17:53:37;13.30;99.90
16838;DHT22;19510;54.486;9.046;2023-04-08T17:56:02;13.20;99.90
16838;DHT22;19510;54.486;9.046;2023-04-08T17:58:31;13.10;99.90
16838;DHT22;19510;54.486;9.046;2023-04-08T18:00:57;13.20;99.90
16838;DHT22;19510;54.486;9.046;2023-04-08T18:03:22;13.10;99.90
16838;DHT22;19510;54.486;9.046;2023-04-08T18:05:48;13.00;99.90
16838;DHT22;19510;54.486;9.046;2023-04-08T18:08:14;12.90;99.90
16838;DHT22;19510;54.486;9.046;2023-04-08T18:10:40;12.90;99.90
16838;DHT22;19510;54.486;9.046;2023-04-08T18:13:08;12.80;99.90
16838;DHT22;19510;54.486;9.046;2023-04-08T18:15:34;12.60;99.90
16838;DHT22;19510;54.486;9.046;2023-04-08T18:18:00;12.60;99.90
16838;DHT22;19510;54.486;9.046;2023-04-08T18:20:26;12.50;99.90
16838;DHT22;19510;54.486;9.046;2023-04-08T18:22:52;12.40;99.90
16838;DHT22;19510;54.486;9.046;2023-04-08T18:25:17;12.40;99.90
16838;DHT22;19510;54.486;9.046;2023-04-08T18:27:48;12.40;99.90
16838;DHT22;19510;54.486;9.046;2023-04-08T18:30:14;12.40;99.90
16838;DHT22;19510;54.486;9.046;2023-04-08T18:32:39;12.20;99.90
16838;DHT22;19510;54.486;9.046;2023-04-08T18:35:05;12.20;99.90
16838;DHT22;19510;54.486;9.046;2023-04-08T18:37:31;12.20;99.90
16838;DHT22;19510;54.486;9.046;2023-04-08T18:39:59;12.10;99.90
16838;DHT22;19510;54.486;9.046;2023-04-08T18:42:26;12.00;99.90
16838;DHT22;19510;54.486;9.046;2023-04-08T18:44:52;12.00;99.90
16838;DHT22;19510;54.486;9.046;2023-04-08T18:47:18;11.90;99.90
16838;DHT22;19510;54.486;9.046;2023-04-08T18:49:46;11.80;99.90
16838;DHT22;19510;54.486;9.046;2023-04-08T18:52:14;11.80;99.90
16838;DHT22;19510;54.486;9.046;2023-04-08T18:54:42;11.70;99.90
16838;DHT22;19510;54.486;9.046;2023-04-08T18:57:10;11.70;99.90
16838;DHT22;19510;54.486;9.046;2023-04-08T18:59:36;11.70;99.90
16838;DHT22;19510;54.486;9.046;2023-04-08T19:02:02;11.70;99.90
16838;DHT22;19510;54.486;9.046;2023-04-08T19:04:28;11.60;99.90
16838;DHT22;19510;54.486;9.046;2023-04-08T19:06:53;11.60;99.90
16838;DHT22;19510;54.486;9.046;2023-04-08T19:09:19;11.50;99.90
16838;DHT22;19510;54.486;9.046;2023-04-08T19:11:45;11.40;99.90
16838;DHT22;19510;54.486;9.046;2023-04-08T19:14:13;11.30;99.90
16838;DHT22;19510;54.486;9.046;2023-04-08T19:16:41;11.40;99.90
16838;DHT22;19510;54.486;9.046;2023-04-08T19:19:06;11.30;99.90
16838;DHT22;19510;54.486;9.046;2023-04-08T19:21:32;11.30;99.90
16838;DHT22;19510;54.486;9.046;2023-04-08T19:24:02;11.20;99.90
16838;DHT22;19510;54.486;9.046;2023-04-08T19:26:30;11.30;99.90
16838;DHT22;19510;54.486;9.046;2023-04-08T19:28:56;11.20;99.90
16838;DHT22;19510;54.486;9.046;2023-04-08T19:31:21;11.10;99.90
16838;DHT22;19510;54.486;9.046;2023-04-08T19:33:47;11.10;99.90
16838;DHT22;19510;54.486;9.046;2023-04-08T19:36:13;11.10;99.90
16838;DHT22;19510;54.486;9.046;2023-04-08T19:38:39;11.10;99.90
16838;DHT22;19510;54.486;9.046;2023-04-08T19:41:05;11.10;99.90
16838;DHT22;19510;54.486;9.046;2023-04-08T19:43:32;11.00;99.90
16838;DHT22;19510;54.486;9.046;2023-04-08T19:45:58;11.00;99.90
16838;DHT22;19510;54.486;9.046;2023-04-08T19:48:27;10.90;99.90
16838;DHT22;19510;54.486;9.046;2023-04-08T19:50:52;10.90;99.90
16838;DHT22;19510;54.486;9.046;2023-04-08T19:53:18;10.90;99.90
16838;DHT22;19510;54.486;9.046;2023-04-08T19:55:44;10.80;99.90
16838;DHT22;19510;54.486;9.046;2023-04-08T19:58:10;10.70;99.90
16838;DHT22;19510;54.486;9.046;2023-04-08T20:00:36;10.70;99.90
16838;DHT22;19510;54.486;9.046;2023-04-08T20:03:03;10.60;99.90
16838;DHT22;19510;54.486;9.046;2023-04-08T20:05:29;10.60;99.90
16838;DHT22;19510;54.486;9.046;2023-04-08T20:07:56;10.50;99.90
16838;DHT22;19510;54.486;9.046;2023-04-08T20:10:21;10.50;99.90
16838;DHT22;19510;54.486;9.046;2023-04-08T20:12:47;10.40;99.90
16838;DHT22;19510;54.486;9.046;2023-04-08T20:15:13;10.30;99.90
16838;DHT22;19510;54.486;9.046;2023-04-08T20:17:38;10.20;99.90
16838;DHT22;19510;54.486;9.046;2023-04-08T20:20:05;10.20;99.90
16838;DHT22;19510;54.486;9.046;2023-04-08T20:22:31;10.20;99.90
16838;DHT22;19510;54.486;9.046;2023-04-08T20:24:57;10.20;99.90
16838;DHT22;19510;54.486;9.046;2023-04-08T20:27:26;10.10;99.90
16838;DHT22;19510;54.486;9.046;2023-04-08T20:29:52;10.10;99.90
16838;DHT22;19510;54.486;9.046;2023-04-08T20:32:20;10.00;99.90
16838;DHT22;19510;54.486;9.046;2023-04-08T20:34:45;10.00;99.90
16838;DHT22;19510;54.486;9.046;2023-04-08T20:37:11;10.00;99.90
16838;DHT22;19510;54.486;9.046;2023-04-08T20:39:37;9.90;99.90
16838;DHT22;19510;54.486;9.046;2023-04-08T20:42:02;9.90;99.90
16838;DHT22;19510;54.486;9.046;2023-04-08T20:44:29;9.90;99.90
16838;DHT22;19510;54.486;9.046;2023-04-08T20:46:55;9.90;99.90
16838;DHT22;19510;54.486;9.046;2023-04-08T20:49:22;9.80;99.90
16838;DHT22;19510;54.486;9.046;2023-04-08T20:51:48;9.80;99.90
16838;DHT22;19510;54.486;9.046;2023-04-08T20:54:14;9.80;99.90
16838;DHT22;19510;54.486;9.046;2023-04-08T20:56:40;9.80;99.90
16838;DHT22;19510;54.486;9.046;2023-04-08T20:59:06;9.80;99.90
16838;DHT22;19510;54.486;9.046;2023-04-08T21:01:32;9.80;99.90
16838;DHT22;19510;54.486;9.046;2023-04-08T21:03:58;9.70;99.90
16838;DHT22;19510;54.486;9.046;2023-04-08T21:06:24;9.60;99.90
16838;DHT22;19510;54.486;9.046;2023-04-08T21:08:51;9.60;99.90
16838;DHT22;19510;54.486;9.046;2023-04-08T21:11:16;9.60;99.90
16838;DHT22;19510;54.486;9.046;2023-04-08T21:13:42;9.50;99.90